Panther Z — SVA6026 — position and weather

sailwx.info

Track history (hours):
 
Tides and Currents Weather Stations Pressure Air Temp Water Temp Dewpoint Dewpoint Depression Visibility Wind Speed Wind Dir Waves Ship Positions

Panther Z

Last reported at 2017-Nov-18 07:34 UTC. Time now 2017-Nov-19 03:06 UTC.
Position N 37°57' E 023°37'.

Length 30 m; draft 4 m.

Type: Tug. MMSI: 239842700.

Date/timePositionNaut miles runAvg speedWind from/ knotsBaromVisibWave heightAir tempDewpointWater temp
2017-Nov-18 07:34N 37°57' E 023°37'0 0.0
2017-Nov-17 11:08N 37°57' E 023°37'0 0.0
2017-Nov-17 11:01N 37°57' E 023°37'0 0.0
2017-Nov-17 10:31N 37°57' E 023°37'0 0.0
2017-Nov-17 10:01N 37°57' E 023°37'0 0.0
2017-Nov-17 09:31N 37°57' E 023°37'0 0.0
2017-Nov-17 09:01N 37°57' E 023°37'0 0.0
2017-Nov-17 08:31N 37°57' E 023°37'0 0.0
2017-Nov-17 08:01N 37°57' E 023°37'0 0.0
2017-Nov-17 07:31N 37°57' E 023°37'0 0.0
2017-Nov-17 07:01N 37°57' E 023°37'0 0.0
2017-Nov-17 06:31N 37°57' E 023°37'0 0.0
2017-Nov-17 06:01N 37°57' E 023°37'0 0.0
2017-Nov-17 05:31N 37°57' E 023°37'0 0.0
2017-Nov-17 05:01N 37°57' E 023°37'0 0.0
2017-Nov-17 04:31N 37°57' E 023°37'0 0.0
2017-Nov-17 04:01N 37°57' E 023°37'0 0.0
2017-Nov-16 12:00N 37°57' E 023°37'0 0.0
2017-Nov-16 11:31N 37°57' E 023°37'0 0.0
2017-Nov-16 11:00N 37°57' E 023°37'0 0.0
2017-Nov-16 10:30N 37°57' E 023°37'0 0.0
2017-Nov-16 10:00N 37°57' E 023°37'0 0.0
2017-Nov-16 09:31N 37°57' E 023°37'0 0.0
2017-Nov-16 09:00N 37°57' E 023°37'0 0.0
2017-Nov-16 08:30N 37°57' E 023°37'0 0.0
2017-Nov-16 08:00N 37°57' E 023°37'0 0.0
2017-Nov-16 07:30N 37°57' E 023°37'0 0.0
2017-Nov-16 07:00N 37°57' E 023°37'0 0.0
2017-Nov-16 06:30N 37°57' E 023°37'0 0.0
2017-Nov-16 06:00N 37°57' E 023°37'0 0.0
2017-Nov-16 05:31N 37°57' E 023°37'0 0.0
2017-Nov-16 05:00N 37°57' E 023°37'0 0.0
2017-Nov-16 04:30N 37°57' E 023°37'0 0.0
2017-Nov-16 04:00N 37°57' E 023°37'0 0.0
2017-Nov-15 16:45N 37°57' E 023°37'0 1.3
2017-Nov-15 16:31N 37°57' E 023°36'6 2.8
2017-Nov-15 14:30N 38°02' E 023°32'0 0.0
2017-Nov-15 14:01N 38°02' E 023°32'0 0.0
2017-Nov-15 13:31N 38°02' E 023°32'0 0.0
2017-Nov-15 13:00N 38°02' E 023°32'0 0.0
2017-Nov-15 12:30N 38°02' E 023°32'0 0.0
2017-Nov-15 12:01N 38°02' E 023°32'0 0.0
2017-Nov-15 11:31N 38°02' E 023°32'0 0.0
2017-Nov-15 11:01N 38°02' E 023°32'0 0.0
2017-Nov-15 10:30N 38°02' E 023°32'0 0.0
2017-Nov-15 10:00N 38°02' E 023°32'3 5.6
2017-Nov-15 09:30N 37°59' E 023°33'3 6.6
2017-Nov-15 09:00N 37°57' E 023°36'1 1.8
2017-Nov-15 08:30N 37°57' E 023°37'0 0.0
2017-Nov-15 08:01N 37°57' E 023°37'0 0.0
2017-Nov-15 07:30N 37°57' E 023°37'0 0.0
2017-Nov-15 07:01N 37°57' E 023°37'0 0.0
2017-Nov-15 06:30N 37°57' E 023°37'0 0.0
2017-Nov-15 06:00N 37°57' E 023°37'0 0.0
2017-Nov-15 05:30N 37°57' E 023°37'0 0.0
2017-Nov-15 05:01N 37°57' E 023°37'0 0.0
2017-Nov-15 04:31N 37°57' E 023°37'0 0.0
2017-Nov-15 04:01N 37°57' E 023°37'0 0.0
2017-Nov-14 12:56N 37°57' E 023°37'1 1.5
2017-Nov-14 12:30N 37°57' E 023°36'0 0.0
2017-Nov-14 12:01N 37°57' E 023°36'1 1.3
2017-Nov-14 11:30N 37°57' E 023°37'0 0.0
2017-Nov-14 11:01N 37°57' E 023°37'0 0.0
2017-Nov-14 10:30N 37°57' E 023°37'0 0.0
2017-Nov-14 10:01N 37°57' E 023°37'3 6.2
2017-Nov-14 09:30N 37°58' E 023°33'4 8.0
2017-Nov-14 09:01N 38°01' E 023°35'2 4.0
2017-Nov-14 08:31N 38°00' E 023°33'3 6.2
2017-Nov-14 08:01N 37°57' E 023°34'1 2.9
2017-Nov-14 07:30N 37°57' E 023°36'0 0.0
2017-Nov-14 07:01N 37°57' E 023°36'0 0.0
2017-Nov-14 06:31N 37°57' E 023°36'0 0.0
2017-Nov-14 06:01N 37°57' E 023°36'0 0.0
2017-Nov-14 05:31N 37°57' E 023°36'0 0.0
2017-Nov-14 05:01N 37°57' E 023°36'0 0.0
2017-Nov-14 04:30N 37°57' E 023°36'0 0.0
2017-Nov-14 04:00N 37°57' E 023°36'0 0.0
2017-Nov-12 17:48N 37°57' E 023°36'0 0.0
2017-Nov-12 17:30N 37°57' E 023°36'0 0.0
2017-Nov-12 17:00N 37°57' E 023°36'0 0.0
2017-Nov-12 16:30N 37°57' E 023°36'0 0.0
2017-Nov-12 16:00N 37°57' E 023°36'0 0.0
2017-Nov-12 15:30N 37°57' E 023°36'0 0.0
2017-Nov-12 15:00N 37°57' E 023°36'0 0.0
2017-Nov-12 14:30N 37°57' E 023°36'3 5.1
2017-Nov-12 14:00N 37°57' E 023°33'3 7.0
2017-Nov-12 13:30N 38°01' E 023°34'1 2.4
2017-Nov-12 13:00N 38°01' E 023°36'1 2.5
2017-Nov-12 12:30N 38°01' E 023°34'1 1.9
2017-Nov-12 12:00N 38°01' E 023°35'0 0.1
2017-Nov-12 11:30N 38°01' E 023°35'2 4.4
2017-Nov-12 11:00N 38°00' E 023°33'3 5.4
2017-Nov-12 10:30N 37°57' E 023°34'2 4.2
2017-Nov-12 10:00N 37°57' E 023°36'0 0.0
2017-Nov-12 09:30N 37°57' E 023°36'0 0.0
2017-Nov-11 17:51N 37°57' E 023°36'0 0.0
2017-Nov-11 17:30N 37°57' E 023°36'0 0.0
2017-Nov-11 17:00N 37°57' E 023°36'0 0.0
2017-Nov-11 16:30N 37°57' E 023°36'0 0.0
2017-Nov-11 16:00N 37°57' E 023°36'0 0.0
2017-Nov-11 15:30N 37°57' E 023°36'0 0.0
2017-Nov-11 15:00N 37°57' E 023°36'0 0.0
2017-Nov-11 14:30N 37°57' E 023°36'0 0.0
2017-Nov-11 14:00N 37°57' E 023°36'0 0.0
2017-Nov-11 13:30N 37°57' E 023°36'0 0.0
2017-Nov-11 13:00N 37°57' E 023°36'0 0.0
2017-Nov-11 12:30N 37°57' E 023°36'0 0.0
2017-Nov-11 12:00N 37°57' E 023°36'0 0.0
2017-Nov-10 11:51N 37°57' E 023°36'0 0.0
2017-Nov-10 11:30N 37°57' E 023°36'0 0.0
2017-Nov-10 11:00N 37°57' E 023°36'0 0.0
2017-Nov-10 10:30N 37°57' E 023°36'0 0.0
2017-Nov-10 10:00N 37°57' E 023°36'0 0.0
2017-Nov-10 09:30N 37°57' E 023°36'0 0.0
2017-Nov-10 09:00N 37°57' E 023°36'0 0.0
2017-Nov-10 08:30N 37°57' E 023°36'0 0.0
2017-Nov-10 08:00N 37°57' E 023°36'0 0.7
2017-Nov-10 07:30N 37°57' E 023°36'1 2.4
2017-Nov-10 07:01N 37°57' E 023°38'0 0.1
2017-Nov-10 06:30N 37°57' E 023°38'2 3.2
2017-Nov-10 06:00N 37°57' E 023°36'0 0.8
2017-Nov-10 05:30N 37°57' E 023°36'0 0.0
2017-Nov-10 05:00N 37°57' E 023°36'0 0.0
2017-Nov-10 04:30N 37°57' E 023°36'0 0.0
2017-Nov-10 04:00N 37°57' E 023°36'0 0.0
2017-Nov-10 03:30N 37°57' E 023°36'0 0.0
2017-Nov-10 03:00N 37°57' E 023°36'0 0.0
2017-Nov-10 02:30N 37°57' E 023°36'0 0.0
2017-Nov-10 02:00N 37°57' E 023°36'0 0.0
2017-Nov-10 01:30N 37°57' E 023°36'0 0.0
2017-Nov-10 01:00N 37°57' E 023°36'1 1.6
2017-Nov-10 00:30N 37°57' E 023°36'1 2.5
2017-Nov-10 00:00N 37°56' E 023°36'1 1.3
2017-Nov-09 23:30N 37°57' E 023°36'0 0.0
2017-Nov-09 23:00N 37°57' E 023°36'0 0.0
2017-Nov-09 22:30N 37°57' E 023°36'0 0.0
2017-Nov-09 22:00N 37°57' E 023°36'0 0.0
2017-Nov-09 21:30N 37°57' E 023°36'0 0.0
2017-Nov-09 21:00N 37°57' E 023°36'0 0.0
2017-Nov-09 20:30N 37°57' E 023°36'0 0.0
2017-Nov-09 20:00N 37°57' E 023°36'0 0.0
2017-Nov-09 19:30N 37°57' E 023°36'0 0.0
2017-Nov-09 19:00N 37°57' E 023°36'0 0.0
2017-Nov-09 18:30N 37°57' E 023°36'0 0.0
2017-Nov-09 18:00N 37°57' E 023°36'0 0.0
2017-Nov-09 17:30N 37°57' E 023°36'0 0.0
2017-Nov-09 17:00N 37°57' E 023°36'0 0.0
2017-Nov-09 16:30N 37°57' E 023°36'0 0.0
2017-Nov-09 16:00N 37°57' E 023°36'0 0.0
2017-Nov-09 15:30N 37°57' E 023°36'0 0.0
2017-Nov-09 15:00N 37°57' E 023°36'0 0.0
2017-Nov-09 14:30N 37°57' E 023°36'0 0.0
2017-Nov-09 14:00N 37°57' E 023°36'0 0.0
2017-Nov-09 13:30N 37°57' E 023°36'0 0.0
2017-Nov-09 13:00N 37°57' E 023°36'0 0.0
2017-Nov-09 12:30N 37°57' E 023°36'0 0.0
2017-Nov-09 12:00N 37°57' E 023°36'0 0.0
2017-Nov-09 11:30N 37°57' E 023°36'0 0.0
2017-Nov-09 04:12N 37°57' E 023°36'0 0.0
2017-Nov-09 04:01N 37°57' E 023°36'0 0.0
2017-Nov-09 03:31N 37°57' E 023°36'0 0.0
2017-Nov-09 03:01N 37°57' E 023°36'0 0.0
2017-Nov-09 02:31N 37°57' E 023°36'0 0.0
2017-Nov-09 02:00N 37°57' E 023°36'0 0.0
2017-Nov-09 01:30N 37°57' E 023°36'0 0.0
2017-Nov-09 01:01N 37°57' E 023°36'0 0.0
2017-Nov-09 00:31N 37°57' E 023°36'0 0.0
2017-Nov-09 00:01N 37°57' E 023°36'0 0.0
2017-Nov-08 23:31N 37°57' E 023°36'0 0.0
2017-Nov-08 23:01N 37°57' E 023°36'0 0.0
2017-Nov-08 22:31N 37°57' E 023°36'0 0.0
2017-Nov-08 22:01N 37°57' E 023°36'0 0.0
2017-Nov-08 21:30N 37°57' E 023°36'0 0.0
2017-Nov-08 21:01N 37°57' E 023°36'0 0.0
2017-Nov-08 20:31N 37°57' E 023°36'0 0.0
2017-Nov-08 20:01N 37°57' E 023°36'0 0.0
2017-Nov-08 19:31N 37°57' E 023°36'0 0.0
2017-Nov-08 19:01N 37°57' E 023°36'0 0.0
2017-Nov-08 18:31N 37°57' E 023°36'0 0.0
2017-Nov-08 18:00N 37°57' E 023°36'0 0.0
2017-Nov-08 17:31N 37°57' E 023°36'0 0.0
2017-Nov-08 17:00N 37°57' E 023°36'0 0.0
2017-Nov-08 16:31N 37°57' E 023°36'0 0.0
2017-Nov-08 16:01N 37°57' E 023°36'0 0.0
2017-Nov-08 15:30N 37°57' E 023°36'2 3.7
2017-Nov-08 15:01N 37°57' E 023°34'1 1.6
2017-Nov-08 14:30N 37°58' E 023°33'2 3.7
2017-Nov-08 14:00N 37°57' E 023°35'1 1.6
2017-Nov-08 13:31N 37°57' E 023°36'0 0.0
2017-Nov-08 13:01N 37°57' E 023°36'0 0.0
2017-Nov-08 12:31N 37°57' E 023°36'0 0.0
2017-Nov-08 12:01N 37°57' E 023°36'0 0.0
2017-Nov-08 11:31N 37°57' E 023°36'  
Track history (hours):
 
Tides and Currents Weather Stations Pressure Air Temp Water Temp Dewpoint Dewpoint Depression Visibility Wind Speed Wind Dir Waves Ship Positions

Panther Z

Last reported at 2017-Nov-18 07:34 UTC. Time now 2017-Nov-19 03:06 UTC.
Position N 37°57' E 023°37'.

Length 30 m; draft 4 m.

Type: Tug. MMSI: 239842700.

Date/timePositionNaut miles runAvg speedWind from/ knotsBaromVisibWave heightAir tempDewpointWater temp
2017-Nov-18 07:34N 37°57' E 023°37'0 0.0
2017-Nov-17 11:08N 37°57' E 023°37'0 0.0
2017-Nov-17 11:01N 37°57' E 023°37'0 0.0
2017-Nov-17 10:31N 37°57' E 023°37'0 0.0
2017-Nov-17 10:01N 37°57' E 023°37'0 0.0
2017-Nov-17 09:31N 37°57' E 023°37'0 0.0
2017-Nov-17 09:01N 37°57' E 023°37'0 0.0
2017-Nov-17 08:31N 37°57' E 023°37'0 0.0
2017-Nov-17 08:01N 37°57' E 023°37'0 0.0
2017-Nov-17 07:31N 37°57' E 023°37'0 0.0
2017-Nov-17 07:01N 37°57' E 023°37'0 0.0
2017-Nov-17 06:31N 37°57' E 023°37'0 0.0
2017-Nov-17 06:01N 37°57' E 023°37'0 0.0
2017-Nov-17 05:31N 37°57' E 023°37'0 0.0
2017-Nov-17 05:01N 37°57' E 023°37'0 0.0
2017-Nov-17 04:31N 37°57' E 023°37'0 0.0
2017-Nov-17 04:01N 37°57' E 023°37'0 0.0
2017-Nov-16 12:00N 37°57' E 023°37'0 0.0
2017-Nov-16 11:31N 37°57' E 023°37'0 0.0
2017-Nov-16 11:00N 37°57' E 023°37'0 0.0
2017-Nov-16 10:30N 37°57' E 023°37'0 0.0
2017-Nov-16 10:00N 37°57' E 023°37'0 0.0
2017-Nov-16 09:31N 37°57' E 023°37'0 0.0
2017-Nov-16 09:00N 37°57' E 023°37'0 0.0
2017-Nov-16 08:30N 37°57' E 023°37'0 0.0
2017-Nov-16 08:00N 37°57' E 023°37'0 0.0
2017-Nov-16 07:30N 37°57' E 023°37'0 0.0
2017-Nov-16 07:00N 37°57' E 023°37'0 0.0
2017-Nov-16 06:30N 37°57' E 023°37'0 0.0
2017-Nov-16 06:00N 37°57' E 023°37'0 0.0
2017-Nov-16 05:31N 37°57' E 023°37'0 0.0
2017-Nov-16 05:00N 37°57' E 023°37'0 0.0
2017-Nov-16 04:30N 37°57' E 023°37'0 0.0
2017-Nov-16 04:00N 37°57' E 023°37'0 0.0
2017-Nov-15 16:45N 37°57' E 023°37'0 1.3
2017-Nov-15 16:31N 37°57' E 023°36'6 2.8
2017-Nov-15 14:30N 38°02' E 023°32'0 0.0
2017-Nov-15 14:01N 38°02' E 023°32'0 0.0
2017-Nov-15 13:31N 38°02' E 023°32'0 0.0
2017-Nov-15 13:00N 38°02' E 023°32'0 0.0
2017-Nov-15 12:30N 38°02' E 023°32'0 0.0
2017-Nov-15 12:01N 38°02' E 023°32'0 0.0
2017-Nov-15 11:31N 38°02' E 023°32'0 0.0
2017-Nov-15 11:01N 38°02' E 023°32'0 0.0
2017-Nov-15 10:30N 38°02' E 023°32'0 0.0
2017-Nov-15 10:00N 38°02' E 023°32'3 5.6
2017-Nov-15 09:30N 37°59' E 023°33'3 6.6
2017-Nov-15 09:00N 37°57' E 023°36'1 1.8
2017-Nov-15 08:30N 37°57' E 023°37'0 0.0
2017-Nov-15 08:01N 37°57' E 023°37'0 0.0
2017-Nov-15 07:30N 37°57' E 023°37'0 0.0
2017-Nov-15 07:01N 37°57' E 023°37'0 0.0
2017-Nov-15 06:30N 37°57' E 023°37'0 0.0
2017-Nov-15 06:00N 37°57' E 023°37'0 0.0
2017-Nov-15 05:30N 37°57' E 023°37'0 0.0
2017-Nov-15 05:01N 37°57' E 023°37'0 0.0
2017-Nov-15 04:31N 37°57' E 023°37'0 0.0
2017-Nov-15 04:01N 37°57' E 023°37'0 0.0
2017-Nov-14 12:56N 37°57' E 023°37'1 1.5
2017-Nov-14 12:30N 37°57' E 023°36'0 0.0
2017-Nov-14 12:01N 37°57' E 023°36'1 1.3
2017-Nov-14 11:30N 37°57' E 023°37'0 0.0
2017-Nov-14 11:01N 37°57' E 023°37'0 0.0
2017-Nov-14 10:30N 37°57' E 023°37'0 0.0
2017-Nov-14 10:01N 37°57' E 023°37'3 6.2
2017-Nov-14 09:30N 37°58' E 023°33'4 8.0
2017-Nov-14 09:01N 38°01' E 023°35'2 4.0
2017-Nov-14 08:31N 38°00' E 023°33'3 6.2
2017-Nov-14 08:01N 37°57' E 023°34'1 2.9
2017-Nov-14 07:30N 37°57' E 023°36'0 0.0
2017-Nov-14 07:01N 37°57' E 023°36'0 0.0
2017-Nov-14 06:31N 37°57' E 023°36'0 0.0
2017-Nov-14 06:01N 37°57' E 023°36'0 0.0
2017-Nov-14 05:31N 37°57' E 023°36'0 0.0
2017-Nov-14 05:01N 37°57' E 023°36'0 0.0
2017-Nov-14 04:30N 37°57' E 023°36'0 0.0
2017-Nov-14 04:00N 37°57' E 023°36'0 0.0
2017-Nov-12 17:48N 37°57' E 023°36'0 0.0
2017-Nov-12 17:30N 37°57' E 023°36'0 0.0
2017-Nov-12 17:00N 37°57' E 023°36'0 0.0
2017-Nov-12 16:30N 37°57' E 023°36'0 0.0
2017-Nov-12 16:00N 37°57' E 023°36'0 0.0
2017-Nov-12 15:30N 37°57' E 023°36'0 0.0
2017-Nov-12 15:00N 37°57' E 023°36'0 0.0
2017-Nov-12 14:30N 37°57' E 023°36'3 5.1
2017-Nov-12 14:00N 37°57' E 023°33'3 7.0
2017-Nov-12 13:30N 38°01' E 023°34'1 2.4
2017-Nov-12 13:00N 38°01' E 023°36'1 2.5
2017-Nov-12 12:30N 38°01' E 023°34'1 1.9
2017-Nov-12 12:00N 38°01' E 023°35'0 0.1
2017-Nov-12 11:30N 38°01' E 023°35'2 4.4
2017-Nov-12 11:00N 38°00' E 023°33'3 5.4
2017-Nov-12 10:30N 37°57' E 023°34'2 4.2
2017-Nov-12 10:00N 37°57' E 023°36'0 0.0
2017-Nov-12 09:30N 37°57' E 023°36'0 0.0
2017-Nov-11 17:51N 37°57' E 023°36'0 0.0
2017-Nov-11 17:30N 37°57' E 023°36'0 0.0
2017-Nov-11 17:00N 37°57' E 023°36'0 0.0
2017-Nov-11 16:30N 37°57' E 023°36'0 0.0
2017-Nov-11 16:00N 37°57' E 023°36'0 0.0
2017-Nov-11 15:30N 37°57' E 023°36'0 0.0
2017-Nov-11 15:00N 37°57' E 023°36'0 0.0
2017-Nov-11 14:30N 37°57' E 023°36'0 0.0
2017-Nov-11 14:00N 37°57' E 023°36'0 0.0
2017-Nov-11 13:30N 37°57' E 023°36'0 0.0
2017-Nov-11 13:00N 37°57' E 023°36'0 0.0
2017-Nov-11 12:30N 37°57' E 023°36'0 0.0
2017-Nov-11 12:00N 37°57' E 023°36'0 0.0
2017-Nov-10 11:51N 37°57' E 023°36'0 0.0
2017-Nov-10 11:30N 37°57' E 023°36'0 0.0
2017-Nov-10 11:00N 37°57' E 023°36'0 0.0
2017-Nov-10 10:30N 37°57' E 023°36'0 0.0
2017-Nov-10 10:00N 37°57' E 023°36'0 0.0
2017-Nov-10 09:30N 37°57' E 023°36'0 0.0
2017-Nov-10 09:00N 37°57' E 023°36'0 0.0
2017-Nov-10 08:30N 37°57' E 023°36'0 0.0
2017-Nov-10 08:00N 37°57' E 023°36'0 0.7
2017-Nov-10 07:30N 37°57' E 023°36'1 2.4
2017-Nov-10 07:01N 37°57' E 023°38'0 0.1
2017-Nov-10 06:30N 37°57' E 023°38'2 3.2
2017-Nov-10 06:00N 37°57' E 023°36'0 0.8
2017-Nov-10 05:30N 37°57' E 023°36'0 0.0
2017-Nov-10 05:00N 37°57' E 023°36'0 0.0
2017-Nov-10 04:30N 37°57' E 023°36'0 0.0
2017-Nov-10 04:00N 37°57' E 023°36'0 0.0
2017-Nov-10 03:30N 37°57' E 023°36'0 0.0
2017-Nov-10 03:00N 37°57' E 023°36'0 0.0
2017-Nov-10 02:30N 37°57' E 023°36'0 0.0
2017-Nov-10 02:00N 37°57' E 023°36'0 0.0
2017-Nov-10 01:30N 37°57' E 023°36'0 0.0
2017-Nov-10 01:00N 37°57' E 023°36'1 1.6
2017-Nov-10 00:30N 37°57' E 023°36'1 2.5
2017-Nov-10 00:00N 37°56' E 023°36'1 1.3
2017-Nov-09 23:30N 37°57' E 023°36'0 0.0
2017-Nov-09 23:00N 37°57' E 023°36'0 0.0
2017-Nov-09 22:30N 37°57' E 023°36'0 0.0
2017-Nov-09 22:00N 37°57' E 023°36'0 0.0
2017-Nov-09 21:30N 37°57' E 023°36'0 0.0
2017-Nov-09 21:00N 37°57' E 023°36'0 0.0
2017-Nov-09 20:30N 37°57' E 023°36'0 0.0
2017-Nov-09 20:00N 37°57' E 023°36'0 0.0
2017-Nov-09 19:30N 37°57' E 023°36'0 0.0
2017-Nov-09 19:00N 37°57' E 023°36'0 0.0
2017-Nov-09 18:30N 37°57' E 023°36'0 0.0
2017-Nov-09 18:00N 37°57' E 023°36'0 0.0
2017-Nov-09 17:30N 37°57' E 023°36'0 0.0
2017-Nov-09 17:00N 37°57' E 023°36'0 0.0
2017-Nov-09 16:30N 37°57' E 023°36'0 0.0
2017-Nov-09 16:00N 37°57' E 023°36'0 0.0
2017-Nov-09 15:30N 37°57' E 023°36'0 0.0
2017-Nov-09 15:00N 37°57' E 023°36'0 0.0
2017-Nov-09 14:30N 37°57' E 023°36'0 0.0
2017-Nov-09 14:00N 37°57' E 023°36'0 0.0
2017-Nov-09 13:30N 37°57' E 023°36'0 0.0
2017-Nov-09 13:00N 37°57' E 023°36'0 0.0
2017-Nov-09 12:30N 37°57' E 023°36'0 0.0
2017-Nov-09 12:00N 37°57' E 023°36'0 0.0
2017-Nov-09 11:30N 37°57' E 023°36'0 0.0
2017-Nov-09 04:12N 37°57' E 023°36'0 0.0
2017-Nov-09 04:01N 37°57' E 023°36'0 0.0
2017-Nov-09 03:31N 37°57' E 023°36'0 0.0
2017-Nov-09 03:01N 37°57' E 023°36'0 0.0
2017-Nov-09 02:31N 37°57' E 023°36'0 0.0
2017-Nov-09 02:00N 37°57' E 023°36'0 0.0
2017-Nov-09 01:30N 37°57' E 023°36'0 0.0
2017-Nov-09 01:01N 37°57' E 023°36'0 0.0
2017-Nov-09 00:31N 37°57' E 023°36'0 0.0
2017-Nov-09 00:01N 37°57' E 023°36'0 0.0
2017-Nov-08 23:31N 37°57' E 023°36'0 0.0
2017-Nov-08 23:01N 37°57' E 023°36'0 0.0
2017-Nov-08 22:31N 37°57' E 023°36'0 0.0
2017-Nov-08 22:01N 37°57' E 023°36'0 0.0
2017-Nov-08 21:30N 37°57' E 023°36'0 0.0
2017-Nov-08 21:01N 37°57' E 023°36'0 0.0
2017-Nov-08 20:31N 37°57' E 023°36'0 0.0
2017-Nov-08 20:01N 37°57' E 023°36'0 0.0
2017-Nov-08 19:31N 37°57' E 023°36'0 0.0
2017-Nov-08 19:01N 37°57' E 023°36'0 0.0
2017-Nov-08 18:31N 37°57' E 023°36'0 0.0
2017-Nov-08 18:00N 37°57' E 023°36'0 0.0
2017-Nov-08 17:31N 37°57' E 023°36'0 0.0
2017-Nov-08 17:00N 37°57' E 023°36'0 0.0
2017-Nov-08 16:31N 37°57' E 023°36'0 0.0
2017-Nov-08 16:01N 37°57' E 023°36'0 0.0
2017-Nov-08 15:30N 37°57' E 023°36'2 3.7
2017-Nov-08 15:01N 37°57' E 023°34'1 1.6
2017-Nov-08 14:30N 37°58' E 023°33'2 3.7
2017-Nov-08 14:00N 37°57' E 023°35'1 1.6
2017-Nov-08 13:31N 37°57' E 023°36'0 0.0
2017-Nov-08 13:01N 37°57' E 023°36'0 0.0
2017-Nov-08 12:31N 37°57' E 023°36'0 0.0
2017-Nov-08 12:01N 37°57' E 023°36'0 0.0
2017-Nov-08 11:31N 37°57' E 023°36'  

Dump ship's entire track history